createdAt,value
2022-10-29T00:00:14.439Z,14.67
2022-10-29T00:02:40.855Z,14.75
2022-10-29T00:05:07.713Z,14.71
2022-10-29T00:07:34.078Z,14.76
2022-10-29T00:10:00.449Z,14.76
2022-10-29T00:12:27.453Z,14.84
2022-10-29T00:14:53.821Z,14.77
2022-10-29T00:17:20.193Z,14.83
2022-10-29T00:19:46.558Z,14.93
2022-10-29T00:22:12.902Z,14.87
2022-10-29T00:24:39.253Z,14.86
2022-10-29T00:27:05.676Z,14.74
2022-10-29T00:29:32.110Z,14.78
2022-10-29T00:31:58.536Z,14.78
2022-10-29T00:34:24.919Z,14.77
2022-10-29T00:36:51.345Z,14.79
2022-10-29T00:39:17.799Z,14.79
2022-10-29T00:41:44.299Z,14.79
2022-10-29T00:44:22.755Z,14.94
2022-10-29T00:47:29.439Z,14.86
2022-10-29T00:50:08.669Z,14.82
2022-10-29T00:52:40.674Z,14.84
2022-10-29T00:55:09.414Z,14.80
2022-10-29T00:57:41.045Z,14.74
2022-10-29T01:00:08.070Z,14.71
2022-10-29T01:02:36.121Z,14.61
2022-10-29T01:05:04.857Z,14.61
2022-10-29T01:07:31.587Z,14.53
2022-10-29T01:09:58.178Z,14.68
2022-10-29T01:12:50.343Z,14.83
2022-10-29T01:15:36.764Z,14.63
2022-10-29T01:18:24.589Z,14.51
2022-10-29T01:21:11.957Z,14.53
2022-10-29T01:23:57.196Z,14.50
2022-10-29T01:27:03.466Z,14.52
2022-10-29T01:30:04.124Z,14.57
2022-10-29T01:32:52.285Z,14.57
2022-10-29T01:35:34.315Z,14.48
2022-10-29T01:38:24.850Z,14.43
2022-10-29T01:41:12.369Z,14.31
2022-10-29T01:43:45.801Z,14.42
2022-10-29T01:46:24.453Z,14.42
2022-10-29T01:48:58.010Z,14.40
2022-10-29T01:51:28.343Z,14.40
2022-10-29T01:53:55.651Z,14.42
2022-10-29T01:56:22.088Z,14.43
2022-10-29T01:58:51.667Z,14.48
2022-10-29T02:01:36.688Z,14.34
2022-10-29T02:04:39.988Z,14.34
2022-10-29T02:07:27.314Z,14.31
2022-10-29T02:10:08.209Z,14.28
2022-10-29T02:12:45.096Z,14.34
2022-10-29T02:15:27.277Z,14.20
2022-10-29T02:17:58.463Z,14.36
2022-10-29T02:20:24.928Z,14.35
2022-10-29T02:22:51.320Z,14.37
2022-10-29T02:25:17.850Z,14.46
2022-10-29T02:27:44.277Z,14.46
2022-10-29T02:30:10.930Z,14.43
2022-10-29T02:32:37.321Z,14.33
2022-10-29T02:35:04.233Z,14.22
2022-10-29T02:37:30.833Z,14.29
2022-10-29T02:39:57.377Z,14.22
2022-10-29T02:42:23.797Z,14.28
2022-10-29T02:44:50.311Z,14.12
2022-10-29T02:47:16.687Z,14.17
2022-10-29T02:49:43.113Z,14.21
2022-10-29T02:52:09.487Z,14.20
2022-10-29T02:54:35.873Z,14.18
2022-10-29T02:57:02.273Z,14.15
2022-10-29T02:59:28.651Z,14.20
2022-10-29T03:01:55.131Z,14.19
2022-10-29T03:04:21.559Z,14.14
2022-10-29T03:06:47.937Z,14.08
2022-10-29T03:09:14.348Z,14.07
2022-10-29T03:11:40.805Z,14.09
2022-10-29T03:14:07.167Z,14.04
2022-10-29T03:16:33.512Z,14.15
2022-10-29T03:18:59.857Z,14.16
2022-10-29T03:21:26.280Z,14.15
2022-10-29T03:23:52.834Z,14.22
2022-10-29T03:26:19.195Z,14.26
2022-10-29T03:31:12.835Z,14.20
2022-10-29T03:33:39.250Z,14.16
2022-10-29T03:36:07.074Z,14.15
2022-10-29T03:38:34.026Z,14.20
2022-10-29T03:41:00.652Z,14.22
2022-10-29T03:43:27.238Z,14.28
2022-10-29T03:45:55.404Z,14.08
2022-10-29T03:48:23.026Z,14.09
2022-10-29T03:50:56.425Z,14.13
2022-10-29T03:53:24.253Z,14.15
2022-10-29T03:55:54.850Z,14.11
2022-10-29T03:58:22.048Z,13.98
2022-10-29T04:01:02.845Z,14.01
2022-10-29T04:03:31.461Z,14.07
2022-10-29T04:05:59.512Z,14.03
2022-10-29T04:08:26.079Z,13.97
2022-10-29T04:10:53.073Z,13.93
2022-10-29T04:13:20.166Z,14.02
2022-10-29T04:15:46.701Z,13.98
2022-10-29T04:18:13.510Z,14.01
2022-10-29T04:20:54.355Z,14.10
2022-10-29T04:29:01.694Z,14.10
2022-10-29T04:31:28.093Z,14.05
2022-10-29T04:33:54.714Z,14.15
2022-10-29T04:36:21.123Z,14.19
2022-10-29T04:38:47.493Z,14.15
2022-10-29T04:41:13.863Z,14.13
2022-10-29T04:43:40.223Z,14.20
2022-10-29T04:46:06.626Z,14.18
2022-10-29T04:48:33.106Z,14.17
2022-10-29T04:50:59.496Z,14.23
2022-10-29T04:53:25.862Z,14.26
2022-10-29T04:55:58.226Z,14.22
2022-10-29T04:58:24.593Z,14.28
2022-10-29T05:00:50.969Z,14.26
2022-10-29T05:03:17.349Z,14.25
2022-10-29T05:05:43.935Z,14.29
2022-10-29T05:08:11.871Z,14.20
2022-10-29T05:10:39.848Z,14.19
2022-10-29T05:13:09.654Z,14.12
2022-10-29T05:15:36.307Z,14.14
2022-10-29T05:18:03.411Z,14.23
2022-10-29T05:20:30.203Z,14.32
2022-10-29T05:23:05.278Z,14.17
2022-10-29T05:25:33.174Z,14.15
2022-10-29T05:28:09.343Z,14.16
2022-10-29T05:30:36.161Z,14.10
2022-10-29T05:33:06.258Z,14.06
2022-10-29T05:35:32.661Z,14.12
2022-10-29T05:38:00.273Z,14.18
2022-10-29T05:40:26.753Z,14.30
2022-10-29T05:42:53.169Z,14.26
2022-10-29T05:45:19.842Z,14.36
2022-10-29T05:47:46.244Z,14.38
2022-10-29T05:50:13.053Z,14.31
2022-10-29T05:52:39.831Z,14.36
2022-10-29T05:55:06.772Z,14.42
2022-10-29T05:57:33.220Z,14.46
2022-10-29T05:59:59.618Z,14.51
2022-10-29T06:02:26.150Z,14.47
2022-10-29T06:04:52.552Z,14.53
2022-10-29T06:07:18.952Z,14.47
2022-10-29T06:09:45.305Z,14.56
2022-10-29T06:12:11.657Z,14.58
2022-10-29T06:14:38.071Z,14.63
2022-10-29T06:17:04.440Z,14.64
2022-10-29T06:19:30.836Z,14.69
2022-10-29T06:22:00.308Z,14.72
2022-10-29T06:24:27.237Z,14.71
2022-10-29T06:26:54.325Z,14.73
2022-10-29T06:29:20.790Z,14.75
2022-10-29T06:31:47.243Z,14.82
2022-10-29T06:34:14.685Z,14.82
2022-10-29T06:36:41.108Z,14.90
2022-10-29T06:39:07.576Z,14.85
2022-10-29T06:41:33.975Z,14.81
2022-10-29T06:44:00.341Z,14.91
2022-10-29T06:46:26.701Z,14.93
2022-10-29T06:48:53.080Z,14.93
2022-10-29T06:51:19.497Z,15.00
2022-10-29T06:53:45.876Z,14.94
2022-10-29T06:56:12.232Z,14.97
2022-10-29T06:58:38.632Z,14.89
2022-10-29T07:01:05.227Z,15.00
2022-10-29T07:03:31.608Z,14.98
2022-10-29T07:06:00.183Z,15.01
2022-10-29T07:08:27.040Z,15.05
2022-10-29T07:10:54.406Z,15.08
2022-10-29T07:13:20.879Z,15.09
2022-10-29T07:15:47.228Z,15.12
2022-10-29T07:18:15.791Z,15.17
2022-10-29T07:20:44.650Z,15.12
2022-10-29T07:23:12.613Z,15.14
2022-10-29T07:25:40.014Z,15.16
2022-10-29T07:28:16.413Z,15.20
2022-10-29T07:30:44.254Z,15.17
2022-10-29T07:33:11.307Z,15.13
2022-10-29T07:35:37.775Z,15.29
2022-10-29T07:38:09.158Z,15.40
2022-10-29T07:40:47.723Z,15.36
2022-10-29T07:43:14.471Z,15.28
2022-10-29T07:45:42.983Z,15.35
2022-10-29T07:48:09.831Z,15.39
2022-10-29T07:50:38.128Z,15.36
2022-10-29T07:53:06.408Z,15.47
2022-10-29T07:55:32.780Z,15.47
2022-10-29T07:58:02.360Z,15.59
2022-10-29T08:00:30.309Z,15.64
2022-10-29T08:02:57.235Z,15.65
2022-10-29T08:05:25.466Z,15.71
2022-10-29T08:07:55.628Z,15.80
2022-10-29T08:10:23.249Z,15.94
2022-10-29T08:12:54.828Z,15.88
2022-10-29T08:15:22.604Z,15.91
2022-10-29T08:17:50.090Z,16.16
2022-10-29T08:20:17.026Z,16.23
2022-10-29T08:22:43.746Z,16.36
2022-10-29T08:25:10.673Z,16.76
2022-10-29T08:27:37.107Z,17.75
2022-10-29T08:30:07.553Z,17.50
2022-10-29T08:32:34.090Z,17.34
2022-10-29T08:35:00.445Z,17.35
2022-10-29T08:37:26.867Z,17.13
2022-10-29T08:39:53.405Z,16.84
2022-10-29T08:42:40.049Z,16.97
2022-10-29T08:45:15.713Z,16.79
2022-10-29T08:48:06.259Z,17.40
2022-10-29T08:50:41.259Z,17.67
2022-10-29T08:53:27.615Z,17.40
2022-10-29T08:55:57.379Z,18.89
2022-10-29T08:58:43.665Z,21.16
2022-10-29T09:01:11.872Z,25.82
2022-10-29T09:03:38.535Z,22.51
2022-10-29T09:06:22.020Z,20.11
2022-10-29T09:09:19.356Z,17.72
2022-10-29T09:11:53.293Z,17.37
2022-10-29T09:14:43.715Z,17.14
2022-10-29T09:17:35.402Z,17.01
2022-10-29T09:20:29.877Z,17.04
2022-10-29T09:23:24.185Z,17.06
2022-10-29T09:25:53.525Z,16.96
2022-10-29T09:28:32.714Z,17.03
2022-10-29T09:31:16.817Z,16.96
2022-10-29T09:33:46.823Z,17.06
2022-10-29T09:36:19.883Z,17.09
2022-10-29T09:38:59.701Z,17.08
2022-10-29T09:41:31.974Z,17.20
2022-10-29T09:44:28.694Z,17.29
2022-10-29T09:47:09.631Z,17.20
2022-10-29T09:50:09.796Z,17.15
2022-10-29T09:52:39.222Z,17.11
2022-10-29T09:55:07.527Z,17.22
2022-10-29T09:57:36.841Z,17.26
2022-10-29T10:00:15.638Z,17.33
2022-10-29T10:02:51.827Z,17.25
2022-10-29T10:05:28.956Z,17.18
2022-10-29T10:08:09.439Z,17.19
2022-10-29T10:10:48.743Z,17.26
2022-10-29T10:13:17.689Z,17.23
2022-10-29T10:15:53.863Z,17.20
2022-10-29T10:18:26.235Z,17.36
2022-10-29T10:21:05.032Z,17.82
2022-10-29T10:24:26.796Z,19.00
2022-10-29T10:26:53.151Z,19.48
2022-10-29T10:29:25.959Z,20.29
2022-10-29T10:31:55.363Z,21.33
2022-10-29T10:34:33.698Z,20.77
2022-10-29T10:37:09.328Z,20.30
2022-10-29T10:39:44.993Z,20.29
2022-10-29T10:42:28.538Z,19.96
2022-10-29T10:45:12.841Z,20.05
2022-10-29T10:47:44.293Z,20.13
2022-10-29T10:50:19.467Z,19.91
2022-10-29T10:52:47.095Z,19.66
2022-10-29T10:55:33.597Z,19.55
2022-10-29T10:58:11.433Z,19.51
2022-10-29T11:00:43.185Z,19.88
2022-10-29T11:03:19.927Z,20.02
2022-10-29T11:06:07.184Z,20.77
2022-10-29T11:08:40.853Z,21.20
2022-10-29T11:11:13.827Z,20.27
2022-10-29T11:13:41.805Z,20.35
2022-10-29T11:16:18.411Z,20.47
2022-10-29T11:19:32.616Z,21.14
2022-10-29T11:22:20.479Z,21.29
2022-10-29T11:25:01.803Z,22.54
2022-10-29T11:27:40.742Z,21.70
2022-10-29T11:30:12.092Z,21.49
2022-10-29T11:32:41.121Z,22.06
2022-10-29T11:35:17.806Z,22.68
2022-10-29T11:38:09.853Z,22.58
2022-10-29T11:40:45.908Z,23.00
2022-10-29T11:43:13.917Z,22.40
2022-10-29T11:45:53.918Z,21.26
2022-10-29T11:48:52.126Z,21.12
2022-10-29T11:51:42.744Z,21.38
2022-10-29T11:54:30.142Z,21.93
2022-10-29T11:57:05.133Z,21.89
2022-10-29T12:00:01.828Z,21.75
2022-10-29T12:02:47.029Z,21.66
2022-10-29T12:05:42.275Z,21.44
2022-10-29T12:08:43.738Z,21.23
2022-10-29T12:11:23.880Z,21.26
2022-10-29T12:14:00.778Z,21.29
2022-10-29T12:16:44.446Z,21.73
2022-10-29T12:19:42.461Z,22.22
2022-10-29T12:22:39.575Z,23.26
2022-10-29T12:25:27.787Z,23.44
2022-10-29T12:28:19.613Z,24.24
2022-10-29T12:30:58.498Z,23.86
2022-10-29T12:33:38.050Z,24.43
2022-10-29T12:36:28.108Z,24.39
2022-10-29T12:38:57.153Z,24.43
2022-10-29T12:41:37.088Z,25.06
2022-10-29T12:44:17.748Z,25.06
2022-10-29T12:46:51.875Z,23.68
2022-10-29T12:49:36.421Z,23.49
2022-10-29T12:52:19.732Z,23.22
2022-10-29T12:54:50.009Z,23.77
2022-10-29T12:57:16.281Z,23.91
2022-10-29T12:59:44.040Z,23.98
2022-10-29T13:02:26.600Z,24.38
2022-10-29T13:05:11.409Z,24.31
2022-10-29T13:07:58.889Z,23.32
2022-10-29T13:10:27.063Z,22.64
2022-10-29T13:12:59.587Z,22.68
2022-10-29T13:15:32.525Z,23.06
2022-10-29T13:18:18.001Z,23.66
2022-10-29T13:20:50.061Z,24.18
2022-10-29T13:23:22.215Z,24.01
2022-10-29T13:25:52.645Z,24.17
2022-10-29T13:28:19.088Z,24.19
2022-10-29T13:30:48.650Z,23.77
2022-10-29T13:33:27.378Z,24.42
2022-10-29T13:35:57.570Z,24.32
2022-10-29T13:39:05.733Z,23.88
2022-10-29T13:41:43.507Z,23.43
2022-10-29T13:44:12.741Z,23.44
2022-10-29T13:47:05.099Z,23.19
2022-10-29T13:49:45.462Z,22.96
2022-10-29T13:52:17.156Z,22.52
2022-10-29T13:54:54.382Z,22.49
2022-10-29T13:57:26.099Z,22.80
2022-10-29T14:00:06.227Z,22.83
2022-10-29T14:02:39.402Z,22.76
2022-10-29T14:05:15.131Z,22.34
2022-10-29T14:08:01.212Z,22.26
2022-10-29T14:11:01.363Z,22.07
2022-10-29T14:13:47.422Z,21.92
2022-10-29T14:16:15.782Z,21.81
2022-10-29T14:18:46.918Z,21.65
2022-10-29T14:21:30.813Z,21.47
2022-10-29T14:24:05.571Z,21.47
2022-10-29T14:26:34.519Z,21.38
2022-10-29T14:29:18.633Z,21.28
2022-10-29T14:31:45.904Z,21.14
2022-10-29T14:34:28.084Z,21.09
2022-10-29T14:37:02.094Z,21.11
2022-10-29T14:39:48.302Z,21.10
2022-10-29T14:42:30.221Z,21.07
2022-10-29T14:45:00.391Z,21.00
2022-10-29T14:47:37.465Z,20.95
2022-10-29T14:50:14.324Z,20.95
2022-10-29T14:52:54.031Z,20.77
2022-10-29T14:55:30.698Z,20.74
2022-10-29T14:58:05.966Z,20.75
2022-10-29T15:00:36.805Z,20.64
2022-10-29T15:03:05.624Z,20.64
2022-10-29T15:05:37.096Z,20.67
2022-10-29T15:08:09.285Z,20.47
2022-10-29T15:10:53.753Z,20.47
2022-10-29T15:13:34.413Z,20.53
2022-10-29T15:16:16.536Z,20.50
2022-10-29T15:18:48.587Z,20.52
2022-10-29T15:21:23.589Z,20.46
2022-10-29T15:23:54.409Z,20.37
2022-10-29T15:26:21.966Z,20.37
2022-10-29T15:28:54.661Z,20.31
2022-10-29T15:31:42.630Z,20.28
2022-10-29T15:34:15.079Z,20.24
2022-10-29T15:36:53.796Z,20.16
2022-10-29T15:39:27.429Z,20.16
2022-10-29T15:41:59.452Z,20.10
2022-10-29T15:44:31.909Z,20.00
2022-10-29T15:47:00.529Z,19.95
2022-10-29T15:49:31.390Z,19.89
2022-10-29T15:52:00.578Z,19.98
2022-10-29T15:54:27.955Z,19.96
2022-10-29T15:56:54.585Z,19.91
2022-10-29T15:59:24.902Z,19.79
2022-10-29T16:01:51.419Z,19.80
2022-10-29T16:04:17.941Z,19.79
2022-10-29T16:06:44.323Z,19.67
2022-10-29T16:09:18.655Z,19.61
2022-10-29T16:11:45.475Z,19.59
2022-10-29T16:14:11.859Z,19.54
2022-10-29T16:16:38.265Z,19.61
2022-10-29T16:19:04.636Z,19.50
2022-10-29T16:21:31.044Z,19.39
2022-10-29T16:24:19.514Z,19.51
2022-10-29T16:26:45.936Z,19.44
2022-10-29T16:29:16.131Z,19.34
2022-10-29T16:31:42.975Z,19.32
2022-10-29T16:34:13.441Z,19.29
2022-10-29T16:36:39.947Z,19.27
2022-10-29T16:39:06.278Z,19.28
2022-10-29T16:41:34.444Z,19.20
2022-10-29T16:44:00.802Z,19.19
2022-10-29T16:46:27.723Z,19.14
2022-10-29T16:48:54.111Z,19.06
2022-10-29T16:51:20.464Z,18.98
2022-10-29T16:53:46.858Z,18.96
2022-10-29T16:56:13.265Z,19.00
2022-10-29T16:58:39.712Z,18.93
2022-10-29T17:01:08.195Z,18.91
2022-10-29T17:03:35.285Z,18.88
2022-10-29T17:06:04.364Z,18.85
2022-10-29T17:08:32.273Z,18.94
2022-10-29T17:11:04.137Z,18.88
2022-10-29T17:13:30.594Z,18.78
2022-10-29T17:15:56.986Z,18.83
2022-10-29T17:18:24.673Z,18.87
2022-10-29T17:20:58.520Z,18.85
2022-10-29T17:23:24.925Z,18.83
2022-10-29T17:25:55.817Z,18.85
2022-10-29T17:28:23.557Z,18.85
2022-10-29T17:30:50.202Z,18.77
2022-10-29T17:33:16.995Z,18.80
2022-10-29T17:35:43.831Z,18.72
2022-10-29T17:38:10.650Z,18.72
2022-10-29T17:40:37.142Z,18.74
2022-10-29T17:43:03.530Z,18.69
2022-10-29T17:45:29.965Z,18.66
2022-10-29T17:47:58.101Z,18.59
2022-10-29T17:50:25.491Z,18.60
2022-10-29T17:52:53.221Z,18.60
2022-10-29T17:55:20.151Z,18.56
2022-10-29T17:57:46.621Z,18.63
2022-10-29T18:00:13.536Z,18.61
2022-10-29T18:02:39.970Z,18.57
2022-10-29T18:05:06.544Z,18.57
2022-10-29T18:07:33.019Z,18.55
2022-10-29T18:09:59.489Z,18.56
2022-10-29T18:12:25.978Z,18.47
2022-10-29T18:14:52.374Z,18.49
2022-10-29T18:17:18.729Z,18.43
2022-10-29T18:19:45.112Z,18.36
2022-10-29T18:22:11.510Z,18.27
2022-10-29T18:24:37.857Z,18.26
2022-10-29T18:27:04.345Z,18.23
2022-10-29T18:29:30.702Z,18.24
2022-10-29T18:31:57.737Z,18.21
2022-10-29T18:34:24.146Z,18.20
2022-10-29T18:36:50.485Z,18.14
2022-10-29T18:39:17.409Z,18.13
2022-10-29T18:41:43.818Z,18.14
2022-10-29T18:44:10.171Z,18.06
2022-10-29T18:46:36.707Z,18.02
2022-10-29T18:49:03.331Z,17.97
2022-10-29T18:51:31.870Z,17.86
2022-10-29T18:53:59.352Z,17.85
2022-10-29T18:56:27.194Z,17.88
2022-10-29T18:58:55.532Z,17.80
2022-10-29T19:01:24.118Z,17.80
2022-10-29T19:03:52.611Z,17.76
2022-10-29T19:06:20.387Z,17.81
2022-10-29T19:08:47.154Z,17.80
2022-10-29T19:11:19.426Z,17.82
2022-10-29T19:13:57.128Z,17.74
2022-10-29T19:16:24.856Z,17.78
2022-10-29T19:18:59.515Z,17.79
2022-10-29T19:21:26.642Z,17.78
2022-10-29T19:23:57.959Z,17.82
2022-10-29T19:26:26.461Z,17.86
2022-10-29T19:28:53.373Z,17.86
2022-10-29T19:31:22.478Z,17.82
2022-10-29T19:33:54.106Z,17.80
2022-10-29T19:36:21.524Z,17.81
2022-10-29T19:38:48.411Z,17.70
2022-10-29T19:41:17.686Z,17.60
2022-10-29T19:43:44.481Z,17.56
2022-10-29T19:46:16.279Z,17.53
2022-10-29T19:48:43.578Z,17.55
2022-10-29T19:51:10.726Z,17.52
2022-10-29T19:53:39.108Z,17.50
2022-10-29T19:56:07.295Z,17.51
2022-10-29T19:58:33.658Z,17.48
2022-10-29T20:01:17.459Z,17.56
2022-10-29T20:03:44.746Z,17.50
2022-10-29T20:06:11.591Z,17.55
2022-10-29T20:08:38.129Z,17.54
2022-10-29T20:11:05.395Z,17.52
2022-10-29T20:13:32.157Z,17.54
2022-10-29T20:15:58.580Z,17.51
2022-10-29T20:18:25.023Z,17.44
2022-10-29T20:20:55.980Z,17.39
2022-10-29T20:23:23.417Z,17.45
2022-10-29T20:25:49.844Z,17.36
2022-10-29T20:28:16.332Z,17.38
2022-10-29T20:30:42.724Z,17.33
2022-10-29T20:33:09.149Z,17.26
2022-10-29T20:35:35.582Z,17.26
2022-10-29T20:38:02.050Z,17.25
2022-10-29T20:40:28.556Z,17.28
2022-10-29T20:42:54.970Z,17.26
2022-10-29T20:45:21.415Z,17.21
2022-10-29T20:47:47.794Z,17.27
2022-10-29T20:50:14.161Z,17.26
2022-10-29T20:52:45.676Z,17.20
2022-10-29T20:55:14.710Z,17.21
2022-10-29T20:57:41.104Z,17.20
2022-10-29T21:00:08.136Z,17.14
2022-10-29T21:02:34.634Z,17.15
2022-10-29T21:05:01.139Z,17.13
2022-10-29T21:07:27.514Z,17.18
2022-10-29T21:09:53.905Z,17.15
2022-10-29T21:12:20.261Z,17.12
2022-10-29T21:14:46.638Z,17.18
2022-10-29T21:17:13.008Z,17.21
2022-10-29T21:19:39.341Z,17.21
2022-10-29T21:22:05.907Z,17.19
2022-10-29T21:24:32.319Z,17.11
2022-10-29T21:26:58.682Z,17.13
2022-10-29T21:29:25.028Z,17.05
2022-10-29T21:31:51.363Z,16.99
2022-10-29T21:34:17.735Z,17.02
2022-10-29T21:36:44.170Z,17.03
2022-10-29T21:39:10.513Z,16.95
2022-10-29T21:41:36.885Z,16.87
2022-10-29T21:44:03.228Z,16.87
2022-10-29T21:46:29.629Z,16.76
2022-10-29T21:48:56.445Z,16.74
2022-10-29T21:51:22.811Z,16.77
2022-10-29T21:53:49.220Z,16.70
2022-10-29T21:56:15.843Z,16.67
2022-10-29T21:58:42.733Z,16.70
2022-10-29T22:01:15.701Z,16.66
2022-10-29T22:03:43.859Z,16.57
2022-10-29T22:06:17.307Z,16.60
2022-10-29T22:08:44.844Z,16.61
2022-10-29T22:11:12.837Z,16.54
2022-10-29T22:13:39.433Z,16.50
2022-10-29T22:16:07.559Z,16.57
2022-10-29T22:18:34.419Z,16.57
2022-10-29T22:21:18.846Z,16.50
2022-10-29T22:23:53.330Z,16.47
2022-10-29T22:26:24.440Z,16.41
2022-10-29T22:28:50.879Z,16.47
2022-10-29T22:31:19.515Z,16.35
2022-10-29T22:33:45.884Z,16.37
2022-10-29T22:36:18.319Z,16.29
2022-10-29T22:38:45.054Z,16.28
2022-10-29T22:41:16.393Z,16.34
2022-10-29T22:43:43.926Z,16.30
2022-10-29T22:46:12.763Z,16.40
2022-10-29T22:48:39.492Z,16.37
2022-10-29T22:51:11.565Z,16.29
2022-10-29T22:53:38.061Z,16.29
2022-10-29T22:56:05.385Z,16.29
2022-10-29T22:58:31.873Z,16.21
2022-10-29T23:01:06.979Z,16.22
2022-10-29T23:03:33.867Z,16.29
2022-10-29T23:06:02.104Z,16.27
2022-10-29T23:08:28.702Z,16.29
2022-10-29T23:10:55.776Z,16.14
2022-10-29T23:13:22.300Z,16.19
2022-10-29T23:15:52.955Z,16.22
2022-10-29T23:18:19.642Z,16.13
2022-10-29T23:20:46.161Z,16.07
2022-10-29T23:23:13.363Z,16.02
2022-10-29T23:25:41.241Z,15.96
2022-10-29T23:28:08.113Z,15.92
2022-10-29T23:30:34.609Z,15.85
2022-10-29T23:33:01.227Z,15.89
2022-10-29T23:35:27.573Z,15.92
2022-10-29T23:37:53.937Z,15.82
2022-10-29T23:40:20.289Z,15.85
2022-10-29T23:42:46.673Z,15.91
2022-10-29T23:45:13.909Z,15.86
2022-10-29T23:47:40.315Z,15.80
2022-10-29T23:50:07.191Z,15.75
2022-10-29T23:52:33.626Z,15.76
2022-10-29T23:54:59.990Z,15.70
2022-10-29T23:57:26.331Z,15.66
2022-10-29T23:59:52.709Z,15.72
